sensor_id;sensor_type;location;lat;lon;timestamp;pressure;altitude;pressure_sealevel;temperature;humidity
61436;BME280;47304;47.456;19.160;2023-04-26T00:02:16;99538.52;;;9.34;63.62
61436;BME280;47304;47.456;19.160;2023-04-26T00:04:43;99540.08;;;9.33;63.61
61436;BME280;47304;47.456;19.160;2023-04-26T00:07:10;99537.98;;;9.32;63.73
61436;BME280;47304;47.456;19.160;2023-04-26T00:09:36;99540.61;;;9.33;63.76
61436;BME280;47304;47.456;19.160;2023-04-26T00:12:03;99547.59;;;9.34;63.70
61436;BME280;47304;47.456;19.160;2023-04-26T00:14:29;99547.23;;;9.35;63.74
61436;BME280;47304;47.456;19.160;2023-04-26T00:16:56;99548.81;;;9.35;63.84
61436;BME280;47304;47.456;19.160;2023-04-26T00:19:22;99551.27;;;9.34;63.80
61436;BME280;47304;47.456;19.160;2023-04-26T00:21:49;99555.10;;;9.35;63.90
61436;BME280;47304;47.456;19.160;2023-04-26T00:24:15;99553.35;;;9.34;63.75
61436;BME280;47304;47.456;19.160;2023-04-26T00:26:42;99555.80;;;9.34;63.86
61436;BME280;47304;47.456;19.160;2023-04-26T00:29:08;99561.76;;;9.33;63.88
61436;BME280;47304;47.456;19.160;2023-04-26T00:31:35;99568.22;;;9.33;64.10
61436;BME280;47304;47.456;19.160;2023-04-26T00:34:01;99569.98;;;9.31;64.12
61436;BME280;47304;47.456;19.160;2023-04-26T00:36:28;99573.13;;;9.31;64.31
61436;BME280;47304;47.456;19.160;2023-04-26T00:38:54;99570.86;;;9.30;64.33
61436;BME280;47304;47.456;19.160;2023-04-26T00:41:21;99576.98;;;9.31;64.46
61436;BME280;47304;47.456;19.160;2023-04-26T00:43:47;99578.73;;;9.31;64.47
61436;BME280;47304;47.456;19.160;2023-04-26T00:46:14;99577.14;;;9.32;64.50
61436;BME280;47304;47.456;19.160;2023-04-26T00:48:41;99582.56;;;9.33;64.55
61436;BME280;47304;47.456;19.160;2023-04-26T00:51:08;99582.91;;;9.33;64.49
61436;BME280;47304;47.456;19.160;2023-04-26T00:53:34;99586.05;;;9.32;64.59
61436;BME280;47304;47.456;19.160;2023-04-26T00:56:02;99585.02;;;9.30;64.58
61436;BME280;47304;47.456;19.160;2023-04-26T00:58:28;99586.27;;;9.28;64.48
61436;BME280;47304;47.456;19.160;2023-04-26T01:00:55;99581.05;;;9.25;64.43
61436;BME280;47304;47.456;19.160;2023-04-26T01:03:21;99585.08;;;9.24;64.48
61436;BME280;47304;47.456;19.160;2023-04-26T01:05:49;99589.98;;;9.21;64.71
61436;BME280;47304;47.456;19.160;2023-04-26T01:08:15;99590.70;;;9.18;64.51
61436;BME280;47304;47.456;19.160;2023-04-26T01:10:42;99592.81;;;9.15;64.74
61436;BME280;47304;47.456;19.160;2023-04-26T01:13:09;99596.17;;;9.10;64.84
61436;BME280;47304;47.456;19.160;2023-04-26T01:15:36;99597.45;;;9.05;64.78
61436;BME280;47304;47.456;19.160;2023-04-26T01:18:03;99597.63;;;9.02;64.75
61436;BME280;47304;47.456;19.160;2023-04-26T01:20:30;99599.59;;;8.97;64.82
61436;BME280;47304;47.456;19.160;2023-04-26T01:22:56;99598.91;;;8.92;65.13
61436;BME280;47304;47.456;19.160;2023-04-26T01:25:23;99604.35;;;8.87;65.20
61436;BME280;47304;47.456;19.160;2023-04-26T01:27:49;99602.80;;;8.83;65.25
61436;BME280;47304;47.456;19.160;2023-04-26T01:30:16;99605.96;;;8.79;65.24
61436;BME280;47304;47.456;19.160;2023-04-26T01:32:42;99611.75;;;8.77;65.37
61436;BME280;47304;47.456;19.160;2023-04-26T01:35:09;99615.61;;;8.74;65.47
61436;BME280;47304;47.456;19.160;2023-04-26T01:37:35;99618.41;;;8.72;65.41
61436;BME280;47304;47.456;19.160;2023-04-26T01:40:02;99621.92;;;8.69;65.50
61436;BME280;47304;47.456;19.160;2023-04-26T01:42:29;99626.46;;;8.65;65.66
61436;BME280;47304;47.456;19.160;2023-04-26T01:44:55;99622.12;;;8.63;65.42
61436;BME280;47304;47.456;19.160;2023-04-26T01:47:22;99628.95;;;8.60;65.55
61436;BME280;47304;47.456;19.160;2023-04-26T01:49:48;99620.59;;;8.52;65.50
61436;BME280;47304;47.456;19.160;2023-04-26T01:52:15;99628.09;;;8.55;65.61
61436;BME280;47304;47.456;19.160;2023-04-26T01:54:41;99631.93;;;8.52;65.60
61436;BME280;47304;47.456;19.160;2023-04-26T01:57:08;99637.53;;;8.49;65.58
61436;BME280;47304;47.456;19.160;2023-04-26T01:59:34;99636.48;;;8.48;65.53
61436;BME280;47304;47.456;19.160;2023-04-26T02:02:01;99639.44;;;8.44;65.66
61436;BME280;47304;47.456;19.160;2023-04-26T02:04:27;99642.06;;;8.41;65.50
61436;BME280;47304;47.456;19.160;2023-04-26T02:06:54;99641.20;;;8.40;65.46
61436;BME280;47304;47.456;19.160;2023-04-26T02:09:21;99645.55;;;8.38;65.46
61436;BME280;47304;47.456;19.160;2023-04-26T02:11:47;99642.44;;;8.35;65.41
61436;BME280;47304;47.456;19.160;2023-04-26T02:14:14;99647.86;;;8.34;65.33
61436;BME280;47304;47.456;19.160;2023-04-26T02:16:40;99641.91;;;8.32;65.32
61436;BME280;47304;47.456;19.160;2023-04-26T02:19:07;99647.69;;;8.31;65.20
61436;BME280;47304;47.456;19.160;2023-04-26T02:21:49;99649.42;;;8.30;65.16
61436;BME280;47304;47.456;19.160;2023-04-26T02:24:15;99651.88;;;8.28;65.08
61436;BME280;47304;47.456;19.160;2023-04-26T02:26:42;99652.05;;;8.27;65.02
61436;BME280;47304;47.456;19.160;2023-04-26T02:29:08;99651.35;;;8.26;64.95
61436;BME280;47304;47.456;19.160;2023-04-26T02:31:35;99654.16;;;8.25;64.94
61436;BME280;47304;47.456;19.160;2023-04-26T02:34:01;99653.98;;;8.23;64.82
61436;BME280;47304;47.456;19.160;2023-04-26T02:36:28;99659.56;;;8.23;64.83
61436;BME280;47304;47.456;19.160;2023-04-26T02:38:54;99656.60;;;8.22;64.89
61436;BME280;47304;47.456;19.160;2023-04-26T02:41:21;99651.36;;;8.23;64.87
61436;BME280;47304;47.456;19.160;2023-04-26T02:43:47;99651.71;;;8.22;64.72
61436;BME280;47304;47.456;19.160;2023-04-26T02:46:14;99654.17;;;8.21;64.65
61436;BME280;47304;47.456;19.160;2023-04-26T02:48:42;99653.45;;;8.19;64.50
61436;BME280;47304;47.456;19.160;2023-04-26T02:51:09;99651.39;;;8.14;64.58
61436;BME280;47304;47.456;19.160;2023-04-26T02:53:36;99654.35;;;8.13;64.48
61436;BME280;47304;47.456;19.160;2023-04-26T02:56:02;99651.74;;;8.11;64.45
61436;BME280;47304;47.456;19.160;2023-04-26T02:58:29;99658.03;;;8.10;64.49
61436;BME280;47304;47.456;19.160;2023-04-26T03:00:58;99659.42;;;8.09;64.31
61436;BME280;47304;47.456;19.160;2023-04-26T03:03:27;99664.66;;;8.08;64.17
61436;BME280;47304;47.456;19.160;2023-04-26T03:05:54;99664.13;;;8.07;64.21
61436;BME280;47304;47.456;19.160;2023-04-26T03:08:20;99665.18;;;8.06;64.13
61436;BME280;47304;47.456;19.160;2023-04-26T03:10:47;99674.77;;;8.06;64.00
61436;BME280;47304;47.456;19.160;2023-04-26T03:13:13;99683.15;;;8.04;63.98
61436;BME280;47304;47.456;19.160;2023-04-26T03:15:46;99686.30;;;8.02;64.03
61436;BME280;47304;47.456;19.160;2023-04-26T03:18:12;99688.39;;;8.02;64.00
61436;BME280;47304;47.456;19.160;2023-04-26T03:20:40;99690.30;;;8.01;63.89
61436;BME280;47304;47.456;19.160;2023-04-26T03:23:06;99693.45;;;8.00;63.70
61436;BME280;47304;47.456;19.160;2023-04-26T03:25:33;99693.79;;;8.00;63.62
61436;BME280;47304;47.456;19.160;2023-04-26T03:27:59;99701.11;;;7.99;63.57
61436;BME280;47304;47.456;19.160;2023-04-26T03:30:26;99706.02;;;7.98;63.43
61436;BME280;47304;47.456;19.160;2023-04-26T03:32:52;99705.13;;;7.97;63.39
61436;BME280;47304;47.456;19.160;2023-04-26T03:35:19;99705.66;;;7.94;63.20
61436;BME280;47304;47.456;19.160;2023-04-26T03:37:46;99711.42;;;7.92;63.15
61436;BME280;47304;47.456;19.160;2023-04-26T03:40:12;99713.67;;;7.89;63.18
61436;BME280;47304;47.456;19.160;2023-04-26T03:42:39;99720.30;;;7.86;63.21
61436;BME280;47304;47.456;19.160;2023-04-26T03:45:06;99718.92;;;7.83;63.29
61436;BME280;47304;47.456;19.160;2023-04-26T03:47:32;99726.41;;;7.81;63.27
61436;BME280;47304;47.456;19.160;2023-04-26T03:50:00;99729.36;;;7.78;63.40
61436;BME280;47304;47.456;19.160;2023-04-26T03:52:26;99734.08;;;7.76;63.31
61436;BME280;47304;47.456;19.160;2023-04-26T03:54:53;99733.90;;;7.74;63.31
61436;BME280;47304;47.456;19.160;2023-04-26T03:57:19;99733.90;;;7.72;63.39
61436;BME280;47304;47.456;19.160;2023-04-26T03:59:46;99730.77;;;7.69;63.47
61436;BME280;47304;47.456;19.160;2023-04-26T04:02:12;99738.26;;;7.71;63.47
61436;BME280;47304;47.456;19.160;2023-04-26T04:04:39;99741.22;;;7.70;63.66
61436;BME280;47304;47.456;19.160;2023-04-26T04:07:06;99745.92;;;7.70;63.61
61436;BME280;47304;47.456;19.160;2023-04-26T04:09:32;99745.58;;;7.69;63.57
61436;BME280;47304;47.456;19.160;2023-04-26T04:11:59;99754.13;;;7.70;63.62
61436;BME280;47304;47.456;19.160;2023-04-26T04:14:25;99751.69;;;7.71;63.58
61436;BME280;47304;47.456;19.160;2023-04-26T04:16:52;99756.39;;;7.72;63.48
61436;BME280;47304;47.456;19.160;2023-04-26T04:19:18;99757.26;;;7.72;63.56
61436;BME280;47304;47.456;19.160;2023-04-26T04:21:45;99751.85;;;7.72;63.42
61436;BME280;47304;47.456;19.160;2023-04-26T04:24:11;99751.34;;;7.73;63.39
61436;BME280;47304;47.456;19.160;2023-04-26T04:26:38;99756.04;;;7.75;63.47
61436;BME280;47304;47.456;19.160;2023-04-26T04:29:04;99758.31;;;7.77;63.39
61436;BME280;47304;47.456;19.160;2023-04-26T04:31:31;99757.27;;;7.80;63.27
61436;BME280;47304;47.456;19.160;2023-04-26T04:33:57;99761.29;;;7.82;63.20
61436;BME280;47304;47.456;19.160;2023-04-26T04:36:24;99754.48;;;7.85;63.09
61436;BME280;47304;47.456;19.160;2023-04-26T04:38:50;99745.08;;;7.87;63.02
61436;BME280;47304;47.456;19.160;2023-04-26T04:41:18;99756.75;;;7.91;63.30
61436;BME280;47304;47.456;19.160;2023-04-26T04:43:44;99767.23;;;7.92;63.01
61436;BME280;47304;47.456;19.160;2023-04-26T04:46:11;99781.02;;;7.96;62.84
61436;BME280;47304;47.456;19.160;2023-04-26T04:48:38;99783.09;;;8.00;62.51
61436;BME280;47304;47.456;19.160;2023-04-26T04:51:04;99787.82;;;8.03;62.46
61436;BME280;47304;47.456;19.160;2023-04-26T04:53:31;99787.11;;;8.06;62.37
61436;BME280;47304;47.456;19.160;2023-04-26T04:55:57;99791.13;;;8.11;62.17
61436;BME280;47304;47.456;19.160;2023-04-26T04:58:24;99789.03;;;8.17;61.53
61436;BME280;47304;47.456;19.160;2023-04-26T05:00:50;99790.79;;;8.22;61.41
61436;BME280;47304;47.456;19.160;2023-04-26T05:03:17;99794.97;;;8.28;61.18
61436;BME280;47304;47.456;19.160;2023-04-26T05:05:43;99797.41;;;8.34;60.70
61436;BME280;47304;47.456;19.160;2023-04-26T05:08:10;99803.69;;;8.39;60.30
61436;BME280;47304;47.456;19.160;2023-04-26T05:10:36;99809.45;;;8.43;60.31
61436;BME280;47304;47.456;19.160;2023-04-26T05:13:03;99814.88;;;8.49;60.11
61436;BME280;47304;47.456;19.160;2023-04-26T05:15:29;99816.11;;;8.54;60.08
61436;BME280;47304;47.456;19.160;2023-04-26T05:17:56;99819.95;;;8.58;60.21
61436;BME280;47304;47.456;19.160;2023-04-26T05:20:22;99818.55;;;8.64;59.83
61436;BME280;47304;47.456;19.160;2023-04-26T05:22:49;99815.39;;;8.67;59.74
61436;BME280;47304;47.456;19.160;2023-04-26T05:25:16;99817.31;;;8.70;59.17
61436;BME280;47304;47.456;19.160;2023-04-26T05:27:43;99820.27;;;8.71;58.91
61436;BME280;47304;47.456;19.160;2023-04-26T05:30:09;99820.45;;;8.70;58.87
61436;BME280;47304;47.456;19.160;2023-04-26T05:32:36;99825.16;;;8.72;59.06
61436;BME280;47304;47.456;19.160;2023-04-26T05:35:02;99826.56;;;8.75;59.09
61436;BME280;47304;47.456;19.160;2023-04-26T05:37:29;99828.45;;;8.81;59.02
61436;BME280;47304;47.456;19.160;2023-04-26T05:39:56;99833.69;;;8.89;58.93
61436;BME280;47304;47.456;19.160;2023-04-26T05:42:22;99833.33;;;8.95;58.94
61436;BME280;47304;47.456;19.160;2023-04-26T05:44:49;99837.86;;;9.03;58.66
61436;BME280;47304;47.456;19.160;2023-04-26T05:47:15;99835.21;;;9.09;57.75
61436;BME280;47304;47.456;19.160;2023-04-26T05:49:42;99833.45;;;9.15;57.98
61436;BME280;47304;47.456;19.160;2023-04-26T05:52:08;99835.16;;;9.23;57.47
61436;BME280;47304;47.456;19.160;2023-04-26T05:54:35;99843.17;;;9.29;57.22
61436;BME280;47304;47.456;19.160;2023-04-26T05:57:01;99843.69;;;9.37;56.66
61436;BME280;47304;47.456;19.160;2023-04-26T05:59:28;99846.81;;;9.41;55.58
61436;BME280;47304;47.456;19.160;2023-04-26T06:01:55;99850.47;;;9.45;55.98
61436;BME280;47304;47.456;19.160;2023-04-26T06:04:21;99842.75;;;9.52;55.72
61436;BME280;47304;47.456;19.160;2023-04-26T06:06:48;99845.34;;;9.59;55.24
61436;BME280;47304;47.456;19.160;2023-04-26T06:09:15;99845.51;;;9.61;54.21
61436;BME280;47304;47.456;19.160;2023-04-26T06:11:44;99846.38;;;9.62;54.07
61436;BME280;47304;47.456;19.160;2023-04-26T06:14:10;99847.58;;;9.64;53.90
61436;BME280;47304;47.456;19.160;2023-04-26T06:16:55;99851.05;;;9.70;53.99
61436;BME280;47304;47.456;19.160;2023-04-26T06:19:21;99846.83;;;9.75;53.12
61436;BME280;47304;47.456;19.160;2023-04-26T06:21:48;99849.42;;;9.79;52.91
61436;BME280;47304;47.456;19.160;2023-04-26T06:24:14;99853.79;;;9.82;52.44
61436;BME280;47304;47.456;19.160;2023-04-26T06:26:41;99852.58;;;9.81;52.33
61436;BME280;47304;47.456;19.160;2023-04-26T06:29:07;99859.38;;;9.83;52.47
61436;BME280;47304;47.456;19.160;2023-04-26T06:31:34;99859.69;;;9.89;52.30
61436;BME280;47304;47.456;19.160;2023-04-26T06:34:00;99858.27;;;9.92;51.44
61436;BME280;47304;47.456;19.160;2023-04-26T06:36:27;99857.04;;;9.96;51.76
61436;BME280;47304;47.456;19.160;2023-04-26T06:38:54;99858.23;;;10.00;50.30
61436;BME280;47304;47.456;19.160;2023-04-26T06:41:20;99855.44;;;10.01;50.41
61436;BME280;47304;47.456;19.160;2023-04-26T06:43:47;99853.66;;;10.04;50.70
61436;BME280;47304;47.456;19.160;2023-04-26T06:46:14;99850.82;;;10.10;50.41
61436;BME280;47304;47.456;19.160;2023-04-26T06:48:40;99850.08;;;10.17;49.68
61436;BME280;47304;47.456;19.160;2023-04-26T06:51:07;99850.92;;;10.20;49.49
61436;BME280;47304;47.456;19.160;2023-04-26T06:53:35;99855.44;;;10.26;49.83
61436;BME280;47304;47.456;19.160;2023-04-26T06:56:02;99852.40;;;10.32;49.69
61436;BME280;47304;47.456;19.160;2023-04-26T06:58:28;99853.77;;;10.41;50.34
61436;BME280;47304;47.456;19.160;2023-04-26T07:00:55;99852.86;;;10.46;49.31
61436;BME280;47304;47.456;19.160;2023-04-26T07:03:21;99857.50;;;10.55;49.52
61436;BME280;47304;47.456;19.160;2023-04-26T07:05:48;99857.96;;;10.63;49.02
61436;BME280;47304;47.456;19.160;2023-04-26T07:08:15;99853.70;;;10.70;49.00
61436;BME280;47304;47.456;19.160;2023-04-26T07:10:41;99861.17;;;10.77;47.94
61436;BME280;47304;47.456;19.160;2023-04-26T07:13:08;99860.80;;;10.79;47.48
61436;BME280;47304;47.456;19.160;2023-04-26T07:15:35;99863.38;;;10.84;47.87
61436;BME280;47304;47.456;19.160;2023-04-26T07:18:01;99855.06;;;10.92;47.22
61436;BME280;47304;47.456;19.160;2023-04-26T07:20:28;99863.25;;;10.98;46.74
61436;BME280;47304;47.456;19.160;2023-04-26T07:22:54;99870.89;;;11.03;46.00
61436;BME280;47304;47.456;19.160;2023-04-26T07:25:21;99870.86;;;11.08;46.45
61436;BME280;47304;47.456;19.160;2023-04-26T07:27:47;99873.56;;;11.18;45.54
61436;BME280;47304;47.456;19.160;2023-04-26T07:30:14;99876.96;;;11.28;44.14
61436;BME280;47304;47.456;19.160;2023-04-26T07:32:40;99881.29;;;11.33;42.83
61436;BME280;47304;47.456;19.160;2023-04-26T07:35:07;99885.10;;;11.37;43.21
61436;BME280;47304;47.456;19.160;2023-04-26T07:37:34;99893.41;;;11.45;42.93
61436;BME280;47304;47.456;19.160;2023-04-26T07:40:00;99895.23;;;11.55;42.85
61436;BME280;47304;47.456;19.160;2023-04-26T07:42:27;99899.35;;;11.63;42.52
61436;BME280;47304;47.456;19.160;2023-04-26T07:44:54;99903.27;;;11.71;42.40
61436;BME280;47304;47.456;19.160;2023-04-26T07:47:20;99903.31;;;11.83;42.21
61436;BME280;47304;47.456;19.160;2023-04-26T07:49:51;99904.92;;;11.94;40.29
61436;BME280;47304;47.456;19.160;2023-04-26T07:52:18;99908.43;;;11.94;39.44
61436;BME280;47304;47.456;19.160;2023-04-26T07:54:44;99908.95;;;11.94;39.66
61436;BME280;47304;47.456;19.160;2023-04-26T07:57:11;99913.48;;;11.97;40.43
61436;BME280;47304;47.456;19.160;2023-04-26T07:59:38;99910.41;;;12.05;40.22
61436;BME280;47304;47.456;19.160;2023-04-26T08:02:05;99914.86;;;12.14;40.20
61436;BME280;47304;47.456;19.160;2023-04-26T08:04:32;99908.74;;;12.24;39.74
61436;BME280;47304;47.456;19.160;2023-04-26T08:07:00;99910.79;;;12.28;38.11
61436;BME280;47304;47.456;19.160;2023-04-26T08:09:27;99909.09;;;12.25;38.31
61436;BME280;47304;47.456;19.160;2023-04-26T08:11:54;99905.98;;;12.21;38.38
61436;BME280;47304;47.456;19.160;2023-04-26T08:14:20;99911.92;;;12.23;38.18
61436;BME280;47304;47.456;19.160;2023-04-26T08:16:47;99910.92;;;12.19;38.71
61436;BME280;47304;47.456;19.160;2023-04-26T08:19:13;99913.66;;;12.24;39.47
61436;BME280;47304;47.456;19.160;2023-04-26T08:21:40;99921.30;;;12.30;39.16
61436;BME280;47304;47.456;19.160;2023-04-26T08:24:06;99927.00;;;12.36;39.38
61436;BME280;47304;47.456;19.160;2023-04-26T08:26:33;99927.45;;;12.42;39.00
61436;BME280;47304;47.456;19.160;2023-04-26T08:28:59;99931.14;;;12.41;38.60
61436;BME280;47304;47.456;19.160;2023-04-26T08:31:26;99929.09;;;12.38;38.67
61436;BME280;47304;47.456;19.160;2023-04-26T08:33:53;99928.99;;;12.44;39.58
61436;BME280;47304;47.456;19.160;2023-04-26T08:36:20;99931.63;;;12.56;39.01
61436;BME280;47304;47.456;19.160;2023-04-26T08:38:46;99933.99;;;12.62;38.50
61436;BME280;47304;47.456;19.160;2023-04-26T08:41:14;99934.14;;;12.65;38.31
61436;BME280;47304;47.456;19.160;2023-04-26T08:43:45;99943.24;;;12.66;37.56
61436;BME280;47304;47.456;19.160;2023-04-26T08:46:14;99944.60;;;12.57;37.48
61436;BME280;47304;47.456;19.160;2023-04-26T08:48:50;99946.42;;;12.42;37.55
61436;BME280;47304;47.456;19.160;2023-04-26T08:51:20;99937.48;;;12.40;37.88
61436;BME280;47304;47.456;19.160;2023-04-26T08:53:49;99942.86;;;12.45;38.55
61436;BME280;47304;47.456;19.160;2023-04-26T08:56:17;99948.15;;;12.55;38.08
61436;BME280;47304;47.456;19.160;2023-04-26T08:58:43;99949.84;;;12.60;37.31
61436;BME280;47304;47.456;19.160;2023-04-26T09:01:13;99953.86;;;12.61;37.06
61436;BME280;47304;47.456;19.160;2023-04-26T09:03:41;99951.20;;;12.63;37.55
61436;BME280;47304;47.456;19.160;2023-04-26T09:06:08;99946.13;;;12.72;37.89
61436;BME280;47304;47.456;19.160;2023-04-26T09:08:35;99938.20;;;12.85;37.63
61436;BME280;47304;47.456;19.160;2023-04-26T09:11:05;99943.35;;;13.01;37.75
61436;BME280;47304;47.456;19.160;2023-04-26T09:13:32;99942.98;;;13.13;36.54
61436;BME280;47304;47.456;19.160;2023-04-26T09:15:58;99947.48;;;13.17;36.39
61436;BME280;47304;47.456;19.160;2023-04-26T09:18:27;99941.74;;;13.24;36.39
61436;BME280;47304;47.456;19.160;2023-04-26T09:21:05;99950.11;;;13.29;35.58
61436;BME280;47304;47.456;19.160;2023-04-26T09:23:32;99951.42;;;13.34;35.45
61436;BME280;47304;47.456;19.160;2023-04-26T09:26:18;99945.56;;;13.37;35.75
61436;BME280;47304;47.456;19.160;2023-04-26T09:28:45;99935.59;;;13.45;35.79
61436;BME280;47304;47.456;19.160;2023-04-26T09:31:37;99943.52;;;13.53;35.93
61436;BME280;47304;47.456;19.160;2023-04-26T09:34:05;99943.71;;;13.61;34.46
61436;BME280;47304;47.456;19.160;2023-04-26T09:36:31;99948.52;;;13.58;34.29
61436;BME280;47304;47.456;19.160;2023-04-26T09:38:58;99939.31;;;13.52;34.54
61436;BME280;47304;47.456;19.160;2023-04-26T09:41:41;99945.80;;;13.63;34.83
61436;BME280;47304;47.456;19.160;2023-04-26T09:44:19;99948.38;;;13.83;35.67
61436;BME280;47304;47.456;19.160;2023-04-26T09:47:10;99948.27;;;14.04;35.55
61436;BME280;47304;47.456;19.160;2023-04-26T09:49:44;99940.40;;;14.27;35.09
61436;BME280;47304;47.456;19.160;2023-04-26T09:52:11;99943.52;;;14.38;34.08
61436;BME280;47304;47.456;19.160;2023-04-26T09:54:41;99938.23;;;14.37;33.99
61436;BME280;47304;47.456;19.160;2023-04-26T09:57:10;99942.91;;;14.41;33.21
61436;BME280;47304;47.456;19.160;2023-04-26T09:59:43;99945.38;;;14.33;33.02
61436;BME280;47304;47.456;19.160;2023-04-26T10:04:44;99944.75;;;14.21;32.86
61436;BME280;47304;47.456;19.160;2023-04-26T10:07:11;99942.32;;;14.20;32.96
61436;BME280;47304;47.456;19.160;2023-04-26T10:09:39;99935.67;;;14.25;33.88
61436;BME280;47304;47.456;19.160;2023-04-26T10:12:10;99930.96;;;14.46;34.32
61436;BME280;47304;47.456;19.160;2023-04-26T10:14:37;99937.17;;;14.69;32.98
61436;BME280;47304;47.456;19.160;2023-04-26T10:17:04;99929.77;;;14.83;32.34
61436;BME280;47304;47.456;19.160;2023-04-26T10:19:35;99938.12;;;14.87;32.40
61436;BME280;47304;47.456;19.160;2023-04-26T10:22:15;99936.36;;;15.15;32.97
61436;BME280;47304;47.456;19.160;2023-04-26T10:24:43;99939.98;;;15.45;31.18
61436;BME280;47304;47.456;19.160;2023-04-26T10:27:09;99942.69;;;15.81;30.55
61436;BME280;47304;47.456;19.160;2023-04-26T10:30:12;99936.23;;;15.92;29.95
61436;BME280;47304;47.456;19.160;2023-04-26T10:33:10;99936.89;;;16.05;30.57
61436;BME280;47304;47.456;19.160;2023-04-26T10:36:12;99930.63;;;17.63;28.95
61436;BME280;47304;47.456;19.160;2023-04-26T10:38:41;99925.46;;;18.62;27.03
61436;BME280;47304;47.456;19.160;2023-04-26T10:41:27;99932.20;;;18.31;26.56
61436;BME280;47304;47.456;19.160;2023-04-26T10:43:54;99938.29;;;18.29;26.75
61436;BME280;47304;47.456;19.160;2023-04-26T10:46:50;99933.78;;;19.01;27.22
61436;BME280;47304;47.456;19.160;2023-04-26T10:49:18;99928.90;;;19.97;25.52
61436;BME280;47304;47.456;19.160;2023-04-26T10:52:07;99925.63;;;20.14;24.21
61436;BME280;47304;47.456;19.160;2023-04-26T10:55:03;99936.45;;;19.92;23.65
61436;BME280;47304;47.456;19.160;2023-04-26T10:57:52;99937.55;;;19.97;24.14
61436;BME280;47304;47.456;19.160;2023-04-26T11:00:24;99928.80;;;22.08;23.30
61436;BME280;47304;47.456;19.160;2023-04-26T11:08:17;99915.48;;;25.74;18.42
61436;BME280;47304;47.456;19.160;2023-04-26T11:10:49;99910.60;;;25.65;18.45
61436;BME280;47304;47.456;19.160;2023-04-26T11:13:15;99918.48;;;24.88;18.14
61436;BME280;47304;47.456;19.160;2023-04-26T11:15:42;99920.68;;;23.93;18.86
61436;BME280;47304;47.456;19.160;2023-04-26T11:18:08;99921.31;;;22.94;19.66
61436;BME280;47304;47.456;19.160;2023-04-26T11:20:35;99923.46;;;22.18;20.82
61436;BME280;47304;47.456;19.160;2023-04-26T11:23:01;99923.27;;;21.38;21.31
61436;BME280;47304;47.456;19.160;2023-04-26T11:25:28;99923.14;;;20.59;22.21
61436;BME280;47304;47.456;19.160;2023-04-26T11:28:01;99924.92;;;20.06;22.59
61436;BME280;47304;47.456;19.160;2023-04-26T11:30:32;99924.25;;;19.54;22.68
61436;BME280;47304;47.456;19.160;2023-04-26T11:32:59;99929.73;;;19.05;23.48
61436;BME280;47304;47.456;19.160;2023-04-26T11:35:27;99940.45;;;18.68;23.61
61436;BME280;47304;47.456;19.160;2023-04-26T11:37:57;99942.49;;;18.35;23.97
61436;BME280;47304;47.456;19.160;2023-04-26T11:40:27;99946.54;;;18.08;24.33
61436;BME280;47304;47.456;19.160;2023-04-26T11:42:53;99955.96;;;17.88;24.68
61436;BME280;47304;47.456;19.160;2023-04-26T11:45:20;99954.96;;;17.42;25.57
61436;BME280;47304;47.456;19.160;2023-04-26T11:47:46;99953.58;;;16.99;26.05
61436;BME280;47304;47.456;19.160;2023-04-26T11:50:14;99957.11;;;16.72;27.24
61436;BME280;47304;47.456;19.160;2023-04-26T11:52:40;99953.90;;;16.61;27.35
61436;BME280;47304;47.456;19.160;2023-04-26T11:55:08;99957.98;;;16.38;27.05
61436;BME280;47304;47.456;19.160;2023-04-26T11:57:34;99958.36;;;16.20;27.53
61436;BME280;47304;47.456;19.160;2023-04-26T12:00:12;99959.50;;;16.11;27.64
61436;BME280;47304;47.456;19.160;2023-04-26T12:02:43;99957.70;;;16.06;27.25
61436;BME280;47304;47.456;19.160;2023-04-26T12:05:09;99961.16;;;16.03;27.42
61436;BME280;47304;47.456;19.160;2023-04-26T12:07:37;99962.25;;;15.96;28.00
61436;BME280;47304;47.456;19.160;2023-04-26T12:10:13;99962.10;;;15.88;28.44
61436;BME280;47304;47.456;19.160;2023-04-26T12:12:46;99960.27;;;15.91;28.28
61436;BME280;47304;47.456;19.160;2023-04-26T12:15:13;99955.83;;;15.86;28.65
61436;BME280;47304;47.456;19.160;2023-04-26T12:18:02;99957.17;;;15.82;28.64
61436;BME280;47304;47.456;19.160;2023-04-26T12:20:32;99956.95;;;15.70;28.60
61436;BME280;47304;47.456;19.160;2023-04-26T12:23:17;99952.36;;;15.50;28.60
61436;BME280;47304;47.456;19.160;2023-04-26T12:26:02;99958.08;;;15.28;28.80
61436;BME280;47304;47.456;19.160;2023-04-26T12:28:28;99958.67;;;15.12;29.40
61436;BME280;47304;47.456;19.160;2023-04-26T12:30:55;99959.69;;;15.00;28.80
61436;BME280;47304;47.456;19.160;2023-04-26T12:33:21;99963.67;;;14.88;28.36
61436;BME280;47304;47.456;19.160;2023-04-26T12:35:48;99962.67;;;14.78;28.26
61436;BME280;47304;47.456;19.160;2023-04-26T12:38:15;99958.88;;;14.75;28.81
61436;BME280;47304;47.456;19.160;2023-04-26T12:40:42;99976.60;;;14.71;29.25
61436;BME280;47304;47.456;19.160;2023-04-26T12:43:11;99976.09;;;14.61;29.46
61436;BME280;47304;47.456;19.160;2023-04-26T12:45:38;99974.23;;;14.51;29.51
61436;BME280;47304;47.456;19.160;2023-04-26T12:48:04;99974.38;;;14.36;29.87
61436;BME280;47304;47.456;19.160;2023-04-26T12:50:31;99976.23;;;14.24;29.90
61436;BME280;47304;47.456;19.160;2023-04-26T12:52:57;99978.05;;;14.13;30.07
61436;BME280;47304;47.456;19.160;2023-04-26T12:55:24;99979.04;;;14.08;30.05
61436;BME280;47304;47.456;19.160;2023-04-26T12:57:50;99978.30;;;14.09;29.85
61436;BME280;47304;47.456;19.160;2023-04-26T13:00:17;99972.41;;;14.37;30.09
61436;BME280;47304;47.456;19.160;2023-04-26T13:02:44;99969.17;;;14.48;29.73
61436;BME280;47304;47.456;19.160;2023-04-26T13:05:11;99971.29;;;14.56;29.60
61436;BME280;47304;47.456;19.160;2023-04-26T13:07:40;99973.09;;;14.62;29.35
61436;BME280;47304;47.456;19.160;2023-04-26T13:10:07;99975.96;;;14.59;29.80